Time;durP1;ratioP1;P1;durP2;ratioP2;P2;SDS_P1;SDS_P2;PMS_P1;PMS_P2;Temp;Humidity;BMP_temperature;BMP_pressure;BME280_temperature;BME280_humidity;BME280_pressure;Samples;Min_cycle;Max_cycle;Signal;HPM_P1;HPM_P2
2024/01/21 00:01:25;;;;;;;13.43;9.32;;;;;;;;;;5089151;28;20200;-79
2024/01/21 00:03:52;;;;;;;15.43;10.30;;;;;;;;;;5089827;28;20231;-78
2024/01/21 00:06:21;;;;;;;13.13;9.45;;;;;;;;;;5096202;28;20220;-80
2024/01/21 00:08:48;;;;;;;15.80;9.27;;;;;;;;;;5094194;28;20200;-80
2024/01/21 00:11:16;;;;;;;12.00;8.35;;;;;;;;;;5087548;28;20298;-80
2024/01/21 00:13:43;;;;;;;10.80;8.38;;;;;;;;;;5096047;28;20196;-80
2024/01/21 00:16:11;;;;;;;9.63;7.25;;;;;;;;;;5090301;28;20216;-80
2024/01/21 00:18:38;;;;;;;11.40;7.75;;;;;;;;;;5093371;28;20222;-81
2024/01/21 00:21:06;;;;;;;12.88;8.63;;;;;;;;;;5096155;28;20211;-80
2024/01/21 00:23:35;;;;;;;11.43;8.15;;;;;;;;;;5088582;28;20247;-79
2024/01/21 00:26:02;;;;;;;7.95;6.85;;;;;;;;;;5095044;28;20228;-79
2024/01/21 00:28:30;;;;;;;8.93;6.57;;;;;;;;;;5093539;28;20275;-80
2024/01/21 00:30:57;;;;;;;14.90;8.07;;;;;;;;;;5095435;28;20196;-80
2024/01/21 00:33:25;;;;;;;13.35;8.45;;;;;;;;;;5096288;28;20246;-80
2024/01/21 00:35:52;;;;;;;10.00;7.57;;;;;;;;;;5090150;28;20671;-79
2024/01/21 00:38:19;;;;;;;12.02;7.88;;;;;;;;;;5095624;28;20230;-80
2024/01/21 00:40:48;;;;;;;8.23;5.82;;;;;;;;;;5090682;28;20294;-80
2024/01/21 00:43:16;;;;;;;12.20;7.03;;;;;;;;;;5090589;28;20207;-80
2024/01/21 00:45:43;;;;;;;10.43;8.02;;;;;;;;;;5094814;28;20311;-80
2024/01/21 00:48:11;;;;;;;9.80;7.57;;;;;;;;;;5095068;28;20203;-80
2024/01/21 00:50:38;;;;;;;11.35;6.95;;;;;;;;;;5087151;28;20565;-78
2024/01/21 00:53:06;;;;;;;10.75;7.35;;;;;;;;;;5095377;28;20205;-80
2024/01/21 00:55:33;;;;;;;10.88;8.02;;;;;;;;;;5095978;28;20227;-78
2024/01/21 00:58:02;;;;;;;12.45;8.38;;;;;;;;;;5096145;28;20222;-80
2024/01/21 01:00:29;;;;;;;9.68;6.63;;;;;;;;;;5096815;28;20353;-78
2024/01/21 01:02:57;;;;;;;11.70;7.75;;;;;;;;;;5098393;28;20202;-80
2024/01/21 01:05:25;;;;;;;10.75;7.63;;;;;;;;;;5098671;28;20228;-80
2024/01/21 01:07:52;;;;;;;9.85;7.25;;;;;;;;;;5098258;28;20574;-81
2024/01/21 01:10:20;;;;;;;10.30;7.68;;;;;;;;;;5098872;28;20214;-81
2024/01/21 01:12:47;;;;;;;12.25;8.82;;;;;;;;;;5098303;28;20200;-78
2024/01/21 01:15:16;;;;;;;10.80;7.80;;;;;;;;;;5098350;28;20228;-81
2024/01/21 01:17:44;;;;;;;12.27;8.43;;;;;;;;;;5098420;28;20211;-81
2024/01/21 01:20:12;;;;;;;11.30;7.50;;;;;;;;;;5097793;28;20236;-80
2024/01/21 01:22:39;;;;;;;11.00;7.60;;;;;;;;;;5098533;28;20200;-80
2024/01/21 01:25:08;;;;;;;14.15;9.40;;;;;;;;;;5098005;28;20220;-80
2024/01/21 01:27:35;;;;;;;14.55;9.27;;;;;;;;;;5098085;28;20204;-80
2024/01/21 01:30:03;;;;;;;13.55;8.90;;;;;;;;;;5098180;28;20295;-80
2024/01/21 01:32:32;;;;;;;11.60;7.68;;;;;;;;;;5098334;28;20200;-80
2024/01/21 01:35:00;;;;;;;11.70;7.53;;;;;;;;;;5098957;28;20220;-80
2024/01/21 01:37:28;;;;;;;13.15;8.88;;;;;;;;;;5097999;28;20200;-81
2024/01/21 01:39:55;;;;;;;12.85;9.07;;;;;;;;;;5097529;28;20235;-81
2024/01/21 01:42:22;;;;;;;13.43;9.00;;;;;;;;;;5097748;28;20216;-81
2024/01/21 01:44:50;;;;;;;12.68;8.18;;;;;;;;;;5098292;28;20224;-81
2024/01/21 01:47:17;;;;;;;13.02;8.25;;;;;;;;;;5097989;28;20208;-81
2024/01/21 01:49:46;;;;;;;11.63;8.23;;;;;;;;;;5098211;28;20193;-80
2024/01/21 01:52:16;;;;;;;10.15;7.63;;;;;;;;;;5097777;28;20197;-81
2024/01/21 01:54:46;;;;;;;9.75;6.63;;;;;;;;;;5098074;28;20331;-80
2024/01/21 01:57:16;;;;;;;8.20;5.80;;;;;;;;;;5098062;28;20676;-79
2024/01/21 01:59:43;;;;;;;9.27;6.45;;;;;;;;;;5097421;28;20212;-81
2024/01/21 02:02:11;;;;;;;7.03;5.57;;;;;;;;;;5097886;28;20197;-80
2024/01/21 02:04:39;;;;;;;6.80;6.10;;;;;;;;;;5096886;28;20220;-79
2024/01/21 02:07:08;;;;;;;7.15;5.72;;;;;;;;;;5097639;28;20200;-81
2024/01/21 02:09:35;;;;;;;7.38;6.13;;;;;;;;;;5097425;28;20197;-81
2024/01/21 02:12:03;;;;;;;6.70;5.38;;;;;;;;;;5094668;28;20936;-80
2024/01/21 02:14:30;;;;;;;8.48;5.57;;;;;;;;;;5076651;28;20225;-81
2024/01/21 02:16:58;;;;;;;8.60;6.72;;;;;;;;;;5077010;28;20686;-81
2024/01/21 02:19:27;;;;;;;6.70;5.18;;;;;;;;;;5077044;28;20306;-79
2024/01/21 02:21:55;;;;;;;9.43;5.93;;;;;;;;;;5076760;28;20264;-81
2024/01/21 02:24:30;;;;;;;8.20;5.85;;;;;;;;;;5077150;28;20283;-80
2024/01/21 02:26:57;;;;;;;9.82;7.05;;;;;;;;;;5077015;28;20200;-78
2024/01/21 02:29:25;;;;;;;9.98;6.53;;;;;;;;;;5076767;28;20197;-81
2024/01/21 02:31:53;;;;;;;8.45;5.38;;;;;;;;;;5076845;28;20342;-81
2024/01/21 02:34:21;;;;;;;7.30;5.35;;;;;;;;;;5076633;28;20223;-80
2024/01/21 02:36:48;;;;;;;8.95;5.90;;;;;;;;;;5076771;28;20579;-80
2024/01/21 02:39:16;;;;;;;8.98;6.30;;;;;;;;;;5076684;28;20228;-80
2024/01/21 02:41:45;;;;;;;8.48;6.05;;;;;;;;;;5076754;28;20204;-80
2024/01/21 02:44:12;;;;;;;8.70;7.13;;;;;;;;;;5076307;28;20207;-80
2024/01/21 02:46:40;;;;;;;12.43;7.72;;;;;;;;;;5077071;28;20679;-79
2024/01/21 02:49:07;;;;;;;7.32;5.45;;;;;;;;;;5076601;28;20293;-79
2024/01/21 02:51:35;;;;;;;9.10;6.80;;;;;;;;;;5076316;28;20292;-82
2024/01/21 02:54:02;;;;;;;8.68;6.40;;;;;;;;;;5076083;28;20211;-81
2024/01/21 02:56:30;;;;;;;8.98;6.45;;;;;;;;;;5075972;28;20232;-80
2024/01/21 02:58:58;;;;;;;10.80;8.88;;;;;;;;;;5076303;28;20201;-81
2024/01/21 03:01:26;;;;;;;9.32;6.60;;;;;;;;;;5076378;28;20207;-80
2024/01/21 03:03:53;;;;;;;10.15;7.97;;;;;;;;;;5076326;28;20272;-80
2024/01/21 03:06:21;;;;;;;10.55;7.57;;;;;;;;;;5075991;28;20256;-81
2024/01/21 03:08:48;;;;;;;10.70;7.30;;;;;;;;;;5076427;28;20201;-80
2024/01/21 03:11:16;;;;;;;12.23;7.68;;;;;;;;;;5076101;28;20581;-78
2024/01/21 03:13:44;;;;;;;13.43;8.85;;;;;;;;;;5076133;28;20698;-79
2024/01/21 03:16:14;;;;;;;10.52;7.97;;;;;;;;;;5075818;28;20220;-80
2024/01/21 03:18:41;;;;;;;11.32;8.40;;;;;;;;;;5075868;28;20258;-81
2024/01/21 03:21:09;;;;;;;15.43;9.15;;;;;;;;;;5055458;28;20253;-81
2024/01/21 03:23:36;;;;;;;13.95;8.88;;;;;;;;;;5055511;28;20202;-80
2024/01/21 03:26:04;;;;;;;14.68;8.90;;;;;;;;;;5055897;28;20221;-78
2024/01/21 03:28:32;;;;;;;10.57;7.70;;;;;;;;;;5055527;28;20204;-81
2024/01/21 03:30:59;;;;;;;10.40;7.60;;;;;;;;;;5055566;28;20198;-80
2024/01/21 03:33:28;;;;;;;13.48;9.15;;;;;;;;;;5056033;28;20204;-80
2024/01/21 03:35:55;;;;;;;12.80;9.75;;;;;;;;;;5055719;28;20233;-81
2024/01/21 03:38:23;;;;;;;11.90;8.57;;;;;;;;;;5055611;28;20201;-80
2024/01/21 03:40:50;;;;;;;12.10;9.13;;;;;;;;;;5055571;28;20681;-80
2024/01/21 03:43:18;;;;;;;12.77;8.10;;;;;;;;;;5055461;28;20675;-81
2024/01/21 03:45:45;;;;;;;16.08;10.63;;;;;;;;;;5055859;28;20715;-80
2024/01/21 03:48:13;;;;;;;12.32;8.82;;;;;;;;;;5055281;28;20210;-80
2024/01/21 03:50:42;;;;;;;10.10;7.53;;;;;;;;;;5055425;28;20292;-79
2024/01/21 03:53:09;;;;;;;11.73;7.90;;;;;;;;;;5054979;28;20205;-81
2024/01/21 03:55:37;;;;;;;10.80;7.60;;;;;;;;;;5055482;28;20312;-81
2024/01/21 03:58:05;;;;;;;9.55;7.15;;;;;;;;;;5055606;28;20205;-80
2024/01/21 04:00:32;;;;;;;12.00;7.13;;;;;;;;;;5055059;28;20228;-79
2024/01/21 04:03:00;;;;;;;12.65;6.95;;;;;;;;;;5055469;28;20205;-81
2024/01/21 04:05:27;;;;;;;11.77;7.47;;;;;;;;;;5055561;28;20688;-81
2024/01/21 04:07:56;;;;;;;12.35;7.78;;;;;;;;;;5055632;28;20216;-79
2024/01/21 04:10:24;;;;;;;9.68;6.78;;;;;;;;;;5055253;28;20197;-81
2024/01/21 04:12:51;;;;;;;11.02;7.05;;;;;;;;;;5055508;28;20213;-80
2024/01/21 04:15:19;;;;;;;11.02;6.45;;;;;;;;;;5054823;28;20221;-79
2024/01/21 04:17:46;;;;;;;8.95;6.88;;;;;;;;;;5054768;28;20205;-81
2024/01/21 04:20:14;;;;;;;10.73;7.75;;;;;;;;;;5054550;28;20710;-82
2024/01/21 04:22:41;;;;;;;11.30;7.72;;;;;;;;;;5054813;28;20210;-81
2024/01/21 04:25:10;;;;;;;10.15;7.60;;;;;;;;;;5055044;28;20226;-82
2024/01/21 04:27:38;;;;;;;10.93;6.75;;;;;;;;;;5055454;28;20207;-81
2024/01/21 04:30:07;;;;;;;11.07;7.38;;;;;;;;;;5055348;28;20233;-79
2024/01/21 04:32:34;;;;;;;10.75;7.93;;;;;;;;;;5057648;28;20289;-81
2024/01/21 04:35:02;;;;;;;10.85;7.47;;;;;;;;;;5059416;28;20787;-81
2024/01/21 04:37:29;;;;;;;9.10;6.80;;;;;;;;;;5058530;28;20198;-80
2024/01/21 04:39:57;;;;;;;12.50;8.15;;;;;;;;;;5058750;28;20240;-81
2024/01/21 04:42:25;;;;;;;10.20;7.50;;;;;;;;;;5058904;28;20208;-81
2024/01/21 04:44:53;;;;;;;13.27;8.38;;;;;;;;;;5059194;28;20312;-82
2024/01/21 04:47:20;;;;;;;12.75;7.90;;;;;;;;;;5058777;28;20198;-82
2024/01/21 04:49:48;;;;;;;12.18;7.30;;;;;;;;;;5059003;28;20746;-81
2024/01/21 04:52:15;;;;;;;10.07;7.50;;;;;;;;;;5058445;28;20198;-78
2024/01/21 04:54:43;;;;;;;11.48;7.07;;;;;;;;;;5058731;28;20222;-81
2024/01/21 04:57:10;;;;;;;13.40;7.20;;;;;;;;;;5059152;28;20256;-80
2024/01/21 04:59:39;;;;;;;12.75;8.25;;;;;;;;;;5058758;28;20202;-80
2024/01/21 05:02:06;;;;;;;12.38;7.45;;;;;;;;;;5058785;28;20225;-80
2024/01/21 05:04:34;;;;;;;9.25;6.80;;;;;;;;;;5058913;28;20224;-80
2024/01/21 05:07:01;;;;;;;11.27;7.47;;;;;;;;;;5058401;28;20232;-82
2024/01/21 05:09:29;;;;;;;11.40;7.03;;;;;;;;;;5058474;28;20216;-81
2024/01/21 05:11:56;;;;;;;9.63;7.15;;;;;;;;;;5058454;28;20219;-81
2024/01/21 05:14:23;;;;;;;10.63;7.68;;;;;;;;;;5058732;28;20296;-80
2024/01/21 05:16:52;;;;;;;15.15;8.60;;;;;;;;;;5058088;28;20212;-81
2024/01/21 05:19:20;;;;;;;9.77;7.40;;;;;;;;;;5058742;28;20681;-81
2024/01/21 05:21:47;;;;;;;12.13;9.20;;;;;;;;;;5058779;28;20232;-81
2024/01/21 05:24:15;;;;;;;11.23;7.68;;;;;;;;;;5058364;28;20224;-80
2024/01/21 05:26:45;;;;;;;9.57;6.70;;;;;;;;;;5058274;28;20205;-80
2024/01/21 05:29:13;;;;;;;7.30;6.10;;;;;;;;;;5058156;28;20204;-80
2024/01/21 05:31:40;;;;;;;5.90;4.80;;;;;;;;;;5058256;28;20285;-81
2024/01/21 05:34:09;;;;;;;7.97;5.50;;;;;;;;;;5058338;28;20202;-80
2024/01/21 05:36:36;;;;;;;7.80;5.15;;;;;;;;;;5067311;28;20231;-80
2024/01/21 05:39:04;;;;;;;5.00;4.32;;;;;;;;;;5097886;28;20196;-81
2024/01/21 05:41:33;;;;;;;6.28;4.32;;;;;;;;;;5098256;28;20223;-80
2024/01/21 05:44:00;;;;;;;6.30;4.57;;;;;;;;;;5097996;28;20566;-78
2024/01/21 05:46:28;;;;;;;6.28;4.45;;;;;;;;;;5097841;28;20216;-81
2024/01/21 05:48:55;;;;;;;5.80;4.50;;;;;;;;;;5098110;28;20214;-80
2024/01/21 05:51:24;;;;;;;5.22;3.97;;;;;;;;;;5086683;28;20193;-81
2024/01/21 05:53:52;;;;;;;7.55;4.72;;;;;;;;;;5077655;28;20197;-81
2024/01/21 05:56:19;;;;;;;6.63;4.78;;;;;;;;;;5077137;28;20311;-81
2024/01/21 05:58:47;;;;;;;6.00;5.25;;;;;;;;;;5077274;28;20211;-79
2024/01/21 06:01:14;;;;;;;5.45;4.85;;;;;;;;;;5077272;28;20228;-79
2024/01/21 06:03:41;;;;;;;6.30;5.22;;;;;;;;;;5077533;28;20660;-79
2024/01/21 06:06:09;;;;;;;5.43;4.53;;;;;;;;;;5077579;28;20260;-80
2024/01/21 06:08:38;;;;;;;7.32;4.97;;;;;;;;;;5077255;28;20211;-81
2024/01/21 06:11:05;;;;;;;4.70;4.30;;;;;;;;;;5077361;28;20212;-80
2024/01/21 06:13:33;;;;;;;4.38;3.83;;;;;;;;;;5077172;28;20724;-80
2024/01/21 06:16:01;;;;;;;4.88;4.38;;;;;;;;;;5076892;28;20227;-81
2024/01/21 06:18:28;;;;;;;3.60;3.30;;;;;;;;;;5085747;28;20215;-81
2024/01/21 06:20:56;;;;;;;4.35;3.78;;;;;;;;;;5097533;28;20287;-81
2024/01/21 06:23:23;;;;;;;4.90;3.53;;;;;;;;;;5097422;28;20212;-81
2024/01/21 06:25:52;;;;;;;4.60;4.07;;;;;;;;;;5077396;28;20591;-82
2024/01/21 06:28:20;;;;;;;4.82;3.72;;;;;;;;;;5077516;28;20205;-81
2024/01/21 06:30:47;;;;;;;4.47;4.05;;;;;;;;;;5091733;28;20693;-80
2024/01/21 06:33:15;;;;;;;4.63;4.22;;;;;;;;;;5097063;28;20195;-81
2024/01/21 06:35:42;;;;;;;4.80;3.53;;;;;;;;;;5097133;28;20584;-81
2024/01/21 06:38:10;;;;;;;6.53;4.10;;;;;;;;;;5084299;28;20205;-82
2024/01/21 06:40:37;;;;;;;4.25;3.47;;;;;;;;;;5076748;28;20235;-79
2024/01/21 06:43:06;;;;;;;4.22;3.78;;;;;;;;;;5081477;28;20220;-82
2024/01/21 06:45:33;;;;;;;4.88;3.70;;;;;;;;;;5097214;28;20306;-82
2024/01/21 06:48:01;;;;;;;4.30;3.90;;;;;;;;;;5086666;28;20209;-80
2024/01/21 06:50:28;;;;;;;3.65;3.25;;;;;;;;;;5076377;28;20571;-80
2024/01/21 06:52:56;;;;;;;5.25;3.17;;;;;;;;;;5076180;28;20200;-82
2024/01/21 06:55:23;;;;;;;4.85;3.33;;;;;;;;;;5075794;28;20249;-80
2024/01/21 06:57:51;;;;;;;3.53;3.03;;;;;;;;;;5079783;28;20204;-81
2024/01/21 07:00:21;;;;;;;3.25;2.95;;;;;;;;;;5081784;28;20693;-81
2024/01/21 07:02:48;;;;;;;2.65;2.45;;;;;;;;;;5096090;28;20226;-80
2024/01/21 07:05:16;;;;;;;3.25;2.80;;;;;;;;;;5095078;28;20224;-81
2024/01/21 07:07:44;;;;;;;3.20;2.90;;;;;;;;;;5080222;28;20207;-80
2024/01/21 07:10:13;;;;;;;4.50;3.20;;;;;;;;;;5091769;28;20213;-80
2024/01/21 07:12:41;;;;;;;3.85;2.83;;;;;;;;;;5087926;28;20284;-82
2024/01/21 07:15:09;;;;;;;3.38;3.05;;;;;;;;;;5087487;28;20229;-79
2024/01/21 07:17:40;;;;;;;3.45;2.72;;;;;;;;;;5085173;28;20280;-81
2024/01/21 07:20:11;;;;;;;3.33;3.03;;;;;;;;;;5090270;28;20703;-81
2024/01/21 07:22:39;;;;;;;3.45;3.13;;;;;;;;;;5087821;28;20628;-81
2024/01/21 07:25:07;;;;;;;3.65;3.30;;;;;;;;;;5096459;28;20224;-81
2024/01/21 07:27:35;;;;;;;4.25;3.03;;;;;;;;;;5085464;28;20196;-82
2024/01/21 07:30:03;;;;;;;2.75;2.55;;;;;;;;;;5085484;28;20661;-81
2024/01/21 07:32:30;;;;;;;4.20;2.78;;;;;;;;;;5086404;28;20261;-81
2024/01/21 07:34:59;;;;;;;3.60;2.85;;;;;;;;;;5089053;28;20228;-81
2024/01/21 07:37:27;;;;;;;2.35;2.15;;;;;;;;;;5075691;28;20203;-81
2024/01/21 07:39:54;;;;;;;3.92;3.35;;;;;;;;;;5079494;28;20200;-82
2024/01/21 07:42:21;;;;;;;3.40;2.78;;;;;;;;;;5089679;28;20249;-82
2024/01/21 07:44:49;;;;;;;3.83;3.13;;;;;;;;;;5084179;28;20227;-82
2024/01/21 07:47:16;;;;;;;3.80;3.08;;;;;;;;;;5080187;28;20570;-80
2024/01/21 07:49:44;;;;;;;3.13;2.67;;;;;;;;;;5078498;28;20197;-81
2024/01/21 07:52:13;;;;;;;3.28;2.70;;;;;;;;;;5076429;28;20196;-82
2024/01/21 07:54:40;;;;;;;4.20;3.78;;;;;;;;;;5089730;28;20243;-82
2024/01/21 07:57:07;;;;;;;4.38;3.38;;;;;;;;;;5086874;28;20197;-83
2024/01/21 07:59:35;;;;;;;3.53;3.22;;;;;;;;;;5086757;28;20290;-82
2024/01/21 08:02:02;;;;;;;4.00;3.60;;;;;;;;;;5094666;28;20246;-81
2024/01/21 08:04:30;;;;;;;4.72;3.03;;;;;;;;;;5091990;28;20562;-80
2024/01/21 08:06:57;;;;;;;4.00;3.60;;;;;;;;;;5088152;28;20206;-82
2024/01/21 08:09:26;;;;;;;3.97;3.30;;;;;;;;;;5095357;28;20204;-81
2024/01/21 08:11:55;;;;;;;4.63;3.13;;;;;;;;;;5095029;28;20291;-82
2024/01/21 08:14:22;;;;;;;5.40;4.88;;;;;;;;;;5089549;28;20250;-83
2024/01/21 08:16:49;;;;;;;4.05;3.20;;;;;;;;;;5084444;28;20291;-82
2024/01/21 08:19:20;;;;;;;5.60;4.20;;;;;;;;;;5083705;28;20211;-81
2024/01/21 08:21:50;;;;;;;5.28;4.07;;;;;;;;;;5092094;28;20196;-81
2024/01/21 08:24:17;;;;;;;4.35;3.47;;;;;;;;;;5088367;28;20275;-81
2024/01/21 08:26:46;;;;;;;6.40;3.20;;;;;;;;;;5084032;28;20204;-82
2024/01/21 08:29:13;;;;;;;4.20;3.80;;;;;;;;;;5090068;28;20292;-81
2024/01/21 08:31:44;;;;;;;4.32;3.58;;;;;;;;;;5098153;28;20235;-82
2024/01/21 08:34:12;;;;;;;4.63;3.00;;;;;;;;;;5086838;28;20200;-82
2024/01/21 08:36:39;;;;;;;4.32;3.13;;;;;;;;;;5095092;28;20294;-82
2024/01/21 08:39:09;;;;;;;3.97;3.55;;;;;;;;;;5094069;28;20231;-82
2024/01/21 08:41:37;;;;;;;3.55;3.25;;;;;;;;;;5091511;28;20211;-83
2024/01/21 08:44:07;;;;;;;4.38;3.97;;;;;;;;;;5094694;28;20603;-82
2024/01/21 08:46:35;;;;;;;4.18;3.78;;;;;;;;;;5097699;28;20585;-82
2024/01/21 08:49:02;;;;;;;4.13;3.42;;;;;;;;;;5092038;28;20209;-83
2024/01/21 08:51:30;;;;;;;4.13;3.70;;;;;;;;;;5097818;28;20299;-83
2024/01/21 08:53:57;;;;;;;4.15;3.22;;;;;;;;;;5097759;28;20268;-83
2024/01/21 08:56:25;;;;;;;4.13;3.53;;;;;;;;;;5097837;28;20220;-82
2024/01/21 08:58:53;;;;;;;4.43;3.63;;;;;;;;;;5092422;28;20200;-83
2024/01/21 09:01:22;;;;;;;5.55;4.07;;;;;;;;;;5094466;28;20295;-81
2024/01/21 09:03:50;;;;;;;3.90;3.25;;;;;;;;;;5091925;28;20315;-83
2024/01/21 09:06:17;;;;;;;4.28;3.65;;;;;;;;;;5096698;28;20224;-82
2024/01/21 09:08:45;;;;;;;6.05;3.83;;;;;;;;;;5096946;28;20643;-82
2024/01/21 09:11:14;;;;;;;4.25;3.85;;;;;;;;;;5085188;28;20715;-83
2024/01/21 09:13:41;;;;;;;7.15;3.90;;;;;;;;;;5096805;28;20205;-82
2024/01/21 09:16:09;;;;;;;3.70;3.35;;;;;;;;;;5090818;28;20221;-83
2024/01/21 09:18:39;;;;;;;4.72;3.80;;;;;;;;;;5096843;28;20236;-83
2024/01/21 09:21:06;;;;;;;4.45;3.78;;;;;;;;;;5095192;28;20204;-83
2024/01/21 09:23:35;;;;;;;4.97;4.22;;;;;;;;;;5095876;28;20608;-83
2024/01/21 09:26:02;;;;;;;5.53;3.80;;;;;;;;;;5096038;28;20228;-82
2024/01/21 09:28:30;;;;;;;5.65;4.00;;;;;;;;;;5096844;28;20204;-82
2024/01/21 09:30:57;;;;;;;4.47;4.07;;;;;;;;;;5097179;28;20211;-83
2024/01/21 09:33:24;;;;;;;6.50;4.10;;;;;;;;;;5095628;28;20287;-82
2024/01/21 09:35:53;;;;;;;6.85;4.57;;;;;;;;;;5099846;28;20287;-81
2024/01/21 09:38:21;;;;;;;5.32;3.88;;;;;;;;;;5099340;28;20218;-83
2024/01/21 09:40:56;;;;;;;5.93;4.13;;;;;;;;;;5099681;28;20663;-82
2024/01/21 09:43:24;;;;;;;5.03;4.35;;;;;;;;;;5096824;28;20212;-82
2024/01/21 09:45:52;;;;;;;4.72;4.20;;;;;;;;;;5100256;28;20281;-80
2024/01/21 09:48:20;;;;;;;5.20;4.72;;;;;;;;;;5097044;28;20272;-81
2024/01/21 09:50:49;;;;;;;5.13;3.90;;;;;;;;;;5097535;28;20212;-82
2024/01/21 09:53:18;;;;;;;5.97;4.20;;;;;;;;;;5097637;28;20208;-82
2024/01/21 09:55:45;;;;;;;7.47;5.15;;;;;;;;;;5097311;28;20231;-81
2024/01/21 09:58:17;;;;;;;5.65;4.80;;;;;;;;;;5097101;28;20230;-81
2024/01/21 10:00:45;;;;;;;6.40;5.30;;;;;;;;;;5096717;28;20203;-82
2024/01/21 10:03:13;;;;;;;7.47;5.10;;;;;;;;;;5094729;28;20307;-82
2024/01/21 10:05:40;;;;;;;7.28;5.15;;;;;;;;;;5096416;28;20285;-82
2024/01/21 10:08:08;;;;;;;7.50;5.80;;;;;;;;;;5099573;28;20307;-82
2024/01/21 10:10:37;;;;;;;6.45;5.07;;;;;;;;;;5092982;28;20645;-83
2024/01/21 10:13:05;;;;;;;6.40;5.07;;;;;;;;;;5099732;28;20204;-82
2024/01/21 10:15:33;;;;;;;9.45;6.78;;;;;;;;;;5099273;28;20231;-81
2024/01/21 10:18:00;;;;;;;6.72;5.78;;;;;;;;;;5097434;28;20298;-81
2024/01/21 10:20:29;;;;;;;7.30;6.47;;;;;;;;;;5099545;28;20689;-81
2024/01/21 10:23:10;;;;;;;10.57;6.05;;;;;;;;;;5091092;28;20242;-83
2024/01/21 10:25:43;;;;;;;8.55;7.15;;;;;;;;;;5089702;28;20228;-82
2024/01/21 10:28:12;;;;;;;6.53;5.88;;;;;;;;;;5093280;28;20199;-82
2024/01/21 10:30:39;;;;;;;8.43;6.60;;;;;;;;;;5099405;28;20589;-83
2024/01/21 10:33:07;;;;;;;8.02;6.70;;;;;;;;;;5094583;28;20707;-82
2024/01/21 10:35:34;;;;;;;8.57;7.40;;;;;;;;;;5094577;28;20244;-83
2024/01/21 10:38:05;;;;;;;12.90;7.32;;;;;;;;;;5098769;28;20280;-82
2024/01/21 10:40:33;;;;;;;7.30;6.05;;;;;;;;;;5094151;28;20215;-82
2024/01/21 10:43:02;;;;;;;9.30;6.90;;;;;;;;;;5096847;28;20300;-83
2024/01/21 10:45:31;;;;;;;8.13;7.28;;;;;;;;;;5097123;28;20228;-82
2024/01/21 10:47:59;;;;;;;9.32;6.60;;;;;;;;;;5094237;28;20202;-83
2024/01/21 10:50:27;;;;;;;9.10;7.07;;;;;;;;;;5091298;28;20219;-83
2024/01/21 10:52:55;;;;;;;11.13;8.88;;;;;;;;;;5094014;28;20200;-83
2024/01/21 10:55:23;;;;;;;10.30;7.32;;;;;;;;;;5091204;28;20236;-82
2024/01/21 10:57:52;;;;;;;8.45;6.70;;;;;;;;;;5090857;28;20196;-83
2024/01/21 11:00:21;;;;;;;10.68;7.68;;;;;;;;;;5096412;28;20201;-82
2024/01/21 11:03:22;;;;;;;8.57;6.72;;;;;;;;;;5091095;28;20204;-82
2024/01/21 11:05:54;;;;;;;9.88;7.85;;;;;;;;;;5093529;28;20223;-82
2024/01/21 11:08:24;;;;;;;8.57;7.55;;;;;;;;;;5090327;28;20193;-83
2024/01/21 11:11:16;;;;;;;12.07;8.57;;;;;;;;;;5096413;28;20648;-82
2024/01/21 11:13:44;;;;;;;10.63;8.02;;;;;;;;;;5093509;28;20201;-81
2024/01/21 11:16:29;;;;;;;9.05;6.85;;;;;;;;;;5090824;28;20307;-82
2024/01/21 11:18:59;;;;;;;12.05;8.93;;;;;;;;;;5094410;28;20280;-83
2024/01/21 11:21:27;;;;;;;9.90;7.65;;;;;;;;;;5099207;28;20693;-80
2024/01/21 11:24:00;;;;;;;9.57;7.45;;;;;;;;;;5092784;28;20287;-83
2024/01/21 11:26:31;;;;;;;8.60;6.97;;;;;;;;;;5091360;28;20273;-82
2024/01/21 11:29:01;;;;;;;9.65;7.35;;;;;;;;;;5097345;28;20228;-83
2024/01/21 11:31:34;;;;;;;8.77;6.95;;;;;;;;;;5090567;28;20212;-83
2024/01/21 11:34:06;;;;;;;9.75;7.90;;;;;;;;;;5096714;28;20267;-82
2024/01/21 11:36:34;;;;;;;9.90;7.85;;;;;;;;;;5086668;28;20317;-83
2024/01/21 11:39:02;;;;;;;12.43;8.77;;;;;;;;;;5098773;28;20209;-81
2024/01/21 11:41:41;;;;;;;12.25;10.18;;;;;;;;;;5092592;28;20280;-81
2024/01/21 11:44:20;;;;;;;10.40;7.55;;;;;;;;;;5093093;28;20192;-81
2024/01/21 11:46:49;;;;;;;11.35;8.18;;;;;;;;;;5095734;28;20204;-83
2024/01/21 11:49:17;;;;;;;13.27;8.27;;;;;;;;;;5089554;28;20219;-82
2024/01/21 11:51:45;;;;;;;12.73;7.82;;;;;;;;;;5090253;28;20292;-83
2024/01/21 11:54:13;;;;;;;10.30;8.38;;;;;;;;;;5090431;28;20203;-83
2024/01/21 11:56:41;;;;;;;10.75;7.70;;;;;;;;;;5098872;28;20216;-82
2024/01/21 11:59:10;;;;;;;10.82;7.40;;;;;;;;;;5092631;28;20235;-82
2024/01/21 12:01:40;;;;;;;11.63;8.73;;;;;;;;;;5091038;28;20208;-82
2024/01/21 12:04:10;;;;;;;12.63;8.40;;;;;;;;;;5096146;28;20204;-82
2024/01/21 12:06:40;;;;;;;11.10;8.50;;;;;;;;;;5091868;28;20255;-81
2024/01/21 12:09:08;;;;;;;11.18;7.90;;;;;;;;;;5089325;28;20260;-83
2024/01/21 12:11:37;;;;;;;11.60;8.52;;;;;;;;;;5087420;28;20308;-82
2024/01/21 12:14:07;;;;;;;12.38;9.85;;;;;;;;;;5087128;28;20283;-82
2024/01/21 12:16:34;;;;;;;12.57;7.95;;;;;;;;;;5089632;28;20702;-82
2024/01/21 12:19:02;;;;;;;9.90;8.18;;;;;;;;;;5095223;28;20295;-83
2024/01/21 12:21:33;;;;;;;9.55;7.32;;;;;;;;;;5078327;28;20209;-81
2024/01/21 12:24:02;;;;;;;10.38;8.35;;;;;;;;;;5083562;28;20287;-82
2024/01/21 12:26:31;;;;;;;9.25;8.15;;;;;;;;;;5089940;28;20232;-82
2024/01/21 12:29:00;;;;;;;14.40;8.82;;;;;;;;;;5091317;28;20208;-82
2024/01/21 12:31:28;;;;;;;13.93;8.70;;;;;;;;;;5093965;28;20280;-83
2024/01/21 12:33:56;;;;;;;10.75;8.45;;;;;;;;;;5089508;28;20203;-82
2024/01/21 12:36:24;;;;;;;14.68;9.50;;;;;;;;;;5098294;28;20218;-82
2024/01/21 12:38:54;;;;;;;9.85;7.93;;;;;;;;;;5089152;28;20276;-82
2024/01/21 12:41:22;;;;;;;11.18;8.82;;;;;;;;;;5092029;28;20208;-82
2024/01/21 12:43:50;;;;;;;10.85;8.10;;;;;;;;;;5083810;28;20211;-83
2024/01/21 12:46:18;;;;;;;12.02;8.60;;;;;;;;;;5090236;28;20224;-83
2024/01/21 12:48:46;;;;;;;11.38;8.65;;;;;;;;;;5083154;28;20300;-83
2024/01/21 12:51:17;;;;;;;13.38;9.18;;;;;;;;;;5086381;28;20667;-83
2024/01/21 12:53:44;;;;;;;11.90;8.50;;;;;;;;;;5100610;28;20199;-83
2024/01/21 12:56:13;;;;;;;12.30;7.80;;;;;;;;;;5086709;28;20759;-82
2024/01/21 12:58:41;;;;;;;10.70;8.43;;;;;;;;;;5095227;28;20284;-83
2024/01/21 13:01:10;;;;;;;12.18;7.78;;;;;;;;;;5099687;28;20204;-83
2024/01/21 13:03:37;;;;;;;11.20;7.95;;;;;;;;;;5094969;28;20200;-82
2024/01/21 13:06:06;;;;;;;9.43;7.78;;;;;;;;;;5096103;28;20221;-82
2024/01/21 13:08:35;;;;;;;10.85;8.68;;;;;;;;;;5092505;28;20239;-82
2024/01/21 13:11:02;;;;;;;9.68;7.22;;;;;;;;;;5097439;28;20723;-82
2024/01/21 13:13:31;;;;;;;11.80;8.43;;;;;;;;;;5095163;28;20205;-81
2024/01/21 13:16:00;;;;;;;14.32;9.60;;;;;;;;;;5092762;28;20251;-82
2024/01/21 13:18:29;;;;;;;9.35;7.80;;;;;;;;;;5094889;28;20285;-83
2024/01/21 13:20:57;;;;;;;12.63;8.00;;;;;;;;;;5098445;28;20200;-83
2024/01/21 13:23:25;;;;;;;11.07;7.65;;;;;;;;;;5095481;28;20609;-82
2024/01/21 13:25:52;;;;;;;8.80;7.68;;;;;;;;;;5095154;28;20235;-83
2024/01/21 13:28:28;;;;;;;12.13;8.40;;;;;;;;;;5089973;28;20662;-83
2024/01/21 13:30:56;;;;;;;12.15;7.88;;;;;;;;;;5083641;28;20205;-81
2024/01/21 13:33:26;;;;;;;13.98;9.25;;;;;;;;;;5095196;28;20201;-83
2024/01/21 13:35:54;;;;;;;15.15;10.15;;;;;;;;;;5094075;28;20688;-81
2024/01/21 13:38:26;;;;;;;14.18;8.77;;;;;;;;;;5095045;28;20665;-82
2024/01/21 13:40:53;;;;;;;11.85;8.48;;;;;;;;;;5099809;28;20200;-82
2024/01/21 13:43:21;;;;;;;12.98;9.35;;;;;;;;;;5092355;28;20212;-81
2024/01/21 13:45:48;;;;;;;13.20;9.95;;;;;;;;;;5094431;28;20239;-81
2024/01/21 13:48:18;;;;;;;12.73;9.20;;;;;;;;;;5090135;28;20707;-82
2024/01/21 13:50:46;;;;;;;15.63;10.05;;;;;;;;;;5098946;28;20663;-82
2024/01/21 13:53:14;;;;;;;14.73;9.90;;;;;;;;;;5082863;28;20650;-82
2024/01/21 13:55:41;;;;;;;12.68;9.68;;;;;;;;;;5084540;28;20228;-83
2024/01/21 13:58:09;;;;;;;12.38;8.05;;;;;;;;;;5092683;28;20228;-82
2024/01/21 14:00:37;;;;;;;14.23;9.95;;;;;;;;;;5087894;28;20716;-82
2024/01/21 14:03:05;;;;;;;14.30;9.82;;;;;;;;;;5093547;28;20200;-82
2024/01/21 14:05:35;;;;;;;13.80;9.45;;;;;;;;;;5097486;28;20256;-82
2024/01/21 14:08:03;;;;;;;12.10;9.20;;;;;;;;;;5095178;28;20707;-82
2024/01/21 14:10:31;;;;;;;11.63;8.70;;;;;;;;;;5095077;28;20228;-83
2024/01/21 14:12:58;;;;;;;12.65;9.18;;;;;;;;;;5095325;28;20200;-82
2024/01/21 14:15:26;;;;;;;12.48;8.38;;;;;;;;;;5093058;28;20212;-82
2024/01/21 14:17:54;;;;;;;13.52;9.57;;;;;;;;;;5089344;28;20201;-82
2024/01/21 14:20:21;;;;;;;14.60;9.13;;;;;;;;;;5093233;28;20587;-81
2024/01/21 14:22:50;;;;;;;12.75;9.15;;;;;;;;;;5090973;28;20216;-82
2024/01/21 14:25:24;;;;;;;12.55;9.43;;;;;;;;;;5090877;28;20323;-82
2024/01/21 14:27:52;;;;;;;12.65;8.60;;;;;;;;;;5096122;28;20231;-81
2024/01/21 14:30:25;;;;;;;11.98;8.25;;;;;;;;;;5093562;28;20236;-82
2024/01/21 14:32:53;;;;;;;11.63;8.18;;;;;;;;;;5093394;28;20196;-82
2024/01/21 14:35:21;;;;;;;10.57;8.00;;;;;;;;;;5091113;28;20223;-81
2024/01/21 14:37:50;;;;;;;14.07;8.52;;;;;;;;;;5095268;28;20648;-82
2024/01/21 14:40:18;;;;;;;14.38;10.13;;;;;;;;;;5094144;28;20196;-81
2024/01/21 14:42:45;;;;;;;13.25;9.52;;;;;;;;;;5089444;28;20196;-81